createdAt,value
2024-05-09T00:00:39.833Z,20.40
2024-05-09T00:03:08.595Z,21.40
2024-05-09T00:05:37.012Z,23.33
2024-05-09T00:08:04.498Z,19.73
2024-05-09T00:10:36.492Z,24.90
2024-05-09T00:13:06.412Z,20.87
2024-05-09T00:15:34.092Z,22.53
2024-05-09T00:18:01.753Z,22.63
2024-05-09T00:20:36.829Z,21.27
2024-05-09T00:23:07.666Z,22.53
2024-05-09T00:25:35.037Z,20.90
2024-05-09T00:28:02.008Z,19.57
2024-05-09T00:30:34.270Z,26.60
2024-05-09T00:33:05.026Z,23.60
2024-05-09T00:35:32.750Z,22.93
2024-05-09T00:37:59.797Z,28.60
2024-05-09T00:40:37.609Z,27.73
2024-05-09T00:43:07.278Z,25.20
2024-05-09T00:45:35.094Z,22.53
2024-05-09T00:48:06.487Z,24.30
2024-05-09T00:50:37.152Z,21.17
2024-05-09T00:53:06.641Z,24.77
2024-05-09T00:55:35.472Z,22.10
2024-05-09T00:58:03.241Z,25.10
2024-05-09T01:00:37.879Z,24.43
2024-05-09T01:03:07.786Z,22.37
2024-05-09T01:05:35.523Z,24.73
2024-05-09T01:08:03.180Z,23.03
2024-05-09T01:10:34.578Z,27.80
2024-05-09T01:13:07.276Z,26.50
2024-05-09T01:15:35.695Z,24.90
2024-05-09T01:18:07.152Z,28.77
2024-05-09T01:20:41.127Z,26.10
2024-05-09T01:23:11.275Z,26.37
2024-05-09T01:25:38.387Z,23.03
2024-05-09T01:28:05.985Z,25.90
2024-05-09T01:30:35.749Z,24.50
2024-05-09T01:33:09.649Z,24.90
2024-05-09T01:35:39.075Z,24.10
2024-05-09T01:38:06.732Z,23.13
2024-05-09T01:40:38.549Z,25.17
2024-05-09T01:43:08.017Z,30.30
2024-05-09T01:45:35.181Z,28.30
2024-05-09T01:48:02.684Z,28.77
2024-05-09T01:50:38.000Z,36.33
2024-05-09T01:53:09.332Z,32.40
2024-05-09T01:55:36.308Z,32.10
2024-05-09T01:58:03.052Z,27.93
2024-05-09T02:00:38.626Z,32.47
2024-05-09T02:03:15.336Z,26.07
2024-05-09T02:05:49.617Z,27.70
2024-05-09T02:08:21.700Z,25.20
2024-05-09T02:10:50.048Z,30.10
2024-05-09T02:13:17.267Z,29.73
2024-05-09T02:15:44.340Z,28.33
2024-05-09T02:18:11.739Z,26.90
2024-05-09T02:20:39.796Z,27.73
2024-05-09T02:23:07.150Z,26.63
2024-05-09T02:25:34.614Z,26.10
2024-05-09T02:28:01.487Z,27.30
2024-05-09T02:32:57.890Z,24.93
2024-05-09T02:35:25.108Z,25.63
2024-05-09T02:37:52.088Z,27.10
2024-05-09T02:40:25.831Z,27.93
2024-05-09T02:43:00.985Z,25.37
2024-05-09T02:45:27.653Z,26.10
2024-05-09T02:47:54.689Z,29.60
2024-05-09T02:50:29.761Z,26.90
2024-05-09T02:53:03.639Z,28.27
2024-05-09T02:55:30.302Z,25.53
2024-05-09T02:57:56.943Z,30.50
2024-05-09T03:00:29.812Z,28.40
2024-05-09T03:03:05.081Z,26.50
2024-05-09T03:05:32.114Z,25.87
2024-05-09T03:07:58.917Z,28.10
2024-05-09T03:10:28.742Z,30.20
2024-05-09T03:12:59.077Z,30.53
2024-05-09T03:15:25.732Z,29.43
2024-05-09T03:17:52.672Z,30.33
2024-05-09T03:20:23.941Z,32.53
2024-05-09T03:22:56.752Z,30.33
2024-05-09T03:25:23.714Z,30.67
2024-05-09T03:27:50.373Z,29.30
2024-05-09T03:30:29.177Z,29.70
2024-05-09T03:33:02.970Z,29.97
2024-05-09T03:35:29.908Z,30.17
2024-05-09T03:37:56.701Z,30.07
2024-05-09T03:40:26.600Z,32.30
2024-05-09T03:42:55.858Z,28.70
2024-05-09T03:45:22.548Z,26.83
2024-05-09T03:47:49.617Z,28.40
2024-05-09T03:50:22.738Z,27.47
2024-05-09T03:52:56.452Z,26.07
2024-05-09T03:55:23.131Z,25.50
2024-05-09T03:57:49.927Z,22.90
2024-05-09T04:00:22.537Z,23.40
2024-05-09T04:02:59.424Z,24.00
2024-05-09T04:05:26.360Z,26.03
2024-05-09T04:07:53.178Z,26.60
2024-05-09T04:10:27.724Z,22.40
2024-05-09T04:12:59.327Z,25.97
2024-05-09T04:15:26.389Z,28.53
2024-05-09T04:17:53.287Z,24.43
2024-05-09T04:20:29.330Z,28.37
2024-05-09T04:23:04.438Z,26.83
2024-05-09T04:25:32.075Z,26.90
2024-05-09T04:27:58.777Z,28.10
2024-05-09T04:30:34.611Z,23.63
2024-05-09T04:33:06.440Z,23.43
2024-05-09T04:35:34.176Z,23.13
2024-05-09T04:38:01.163Z,22.97
2024-05-09T04:40:33.390Z,28.30
2024-05-09T04:43:03.683Z,25.00
2024-05-09T04:45:30.602Z,26.00
2024-05-09T04:47:57.867Z,23.03
2024-05-09T04:50:33.211Z,26.00
2024-05-09T04:53:04.380Z,25.47
2024-05-09T04:55:31.704Z,29.97
2024-05-09T04:57:58.462Z,27.10
2024-05-09T05:00:32.582Z,29.27
2024-05-09T05:03:10.281Z,30.83
2024-05-09T05:05:42.788Z,28.80
2024-05-09T05:08:14.268Z,26.37
2024-05-09T05:10:42.215Z,27.57
2024-05-09T05:13:22.722Z,25.00
2024-05-09T05:15:57.220Z,25.47
2024-05-09T05:18:26.199Z,27.37
2024-05-09T05:20:53.422Z,35.30
2024-05-09T05:23:21.593Z,34.53
2024-05-09T05:25:53.427Z,30.63
2024-05-09T05:28:24.172Z,29.80
2024-05-09T05:30:51.066Z,29.50
2024-05-09T05:33:22.985Z,28.90
2024-05-09T05:35:50.208Z,28.07
2024-05-09T05:38:17.430Z,31.17
2024-05-09T05:40:44.415Z,33.00
2024-05-09T05:43:17.721Z,31.83
2024-05-09T05:45:45.069Z,34.80
2024-05-09T05:48:13.491Z,35.03
2024-05-09T05:50:40.370Z,34.93
2024-05-09T05:53:08.221Z,37.20
2024-05-09T05:55:36.750Z,38.97
2024-05-09T05:58:03.786Z,39.30
2024-05-09T06:00:38.078Z,41.60
2024-05-09T06:03:07.698Z,42.40
2024-05-09T06:05:36.661Z,45.20
2024-05-09T06:08:03.612Z,46.27
2024-05-09T06:10:37.682Z,43.40
2024-05-09T06:13:07.531Z,46.83
2024-05-09T06:15:34.364Z,45.37
2024-05-09T06:18:01.686Z,43.73
2024-05-09T06:20:35.552Z,46.33
2024-05-09T06:23:07.797Z,50.70
2024-05-09T06:25:35.758Z,55.43
2024-05-09T06:28:03.086Z,54.10
2024-05-09T06:30:37.473Z,64.83
2024-05-09T06:33:07.978Z,59.10
2024-05-09T06:35:35.431Z,56.53
2024-05-09T06:38:02.526Z,59.30
2024-05-09T06:40:36.386Z,61.63
2024-05-09T06:43:10.540Z,59.40
2024-05-09T06:45:37.383Z,57.17
2024-05-09T06:48:04.490Z,83.00
2024-05-09T06:50:36.793Z,74.37
2024-05-09T06:53:05.338Z,62.00
2024-05-09T06:55:32.123Z,70.03
2024-05-09T06:57:58.854Z,54.87
2024-05-09T07:00:34.446Z,60.23
2024-05-09T07:03:17.144Z,57.43
2024-05-09T07:05:47.218Z,56.57
2024-05-09T07:08:15.317Z,56.77
2024-05-09T07:10:42.129Z,60.13
2024-05-09T07:13:13.014Z,61.00
2024-05-09T07:15:41.148Z,55.40
2024-05-09T07:18:21.517Z,55.57
2024-05-09T07:20:49.722Z,58.17
2024-05-09T07:23:19.863Z,62.33
2024-05-09T07:25:46.803Z,59.77
2024-05-09T07:28:15.211Z,57.87
2024-05-09T07:30:42.758Z,69.77
2024-05-09T07:33:09.940Z,57.73
2024-05-09T07:35:36.887Z,59.93
2024-05-09T07:38:03.864Z,65.00
2024-05-09T07:40:35.915Z,64.00
2024-05-09T07:43:08.402Z,57.43
2024-05-09T07:52:32.641Z,61.67
2024-05-09T07:55:53.858Z,63.60
2024-05-09T07:58:20.729Z,56.13
2024-05-09T08:00:47.514Z,58.90
2024-05-09T08:03:14.320Z,58.10
2024-05-09T08:05:41.283Z,64.77
2024-05-09T08:08:08.188Z,56.40
2024-05-09T08:10:35.282Z,52.13
2024-05-09T08:13:02.116Z,56.93
2024-05-09T08:15:28.985Z,56.93
2024-05-09T08:17:56.007Z,54.60
2024-05-09T08:20:30.683Z,54.00
2024-05-09T08:23:00.452Z,57.60
2024-05-09T08:25:27.324Z,51.30
2024-05-09T08:27:54.106Z,49.47
2024-05-09T08:30:25.471Z,50.97
2024-05-09T08:32:59.486Z,50.60
2024-05-09T08:35:26.314Z,48.60
2024-05-09T08:37:53.634Z,45.50
2024-05-09T08:40:30.430Z,50.43
2024-05-09T08:43:02.609Z,53.87
2024-05-09T08:45:30.335Z,46.73
2024-05-09T08:48:01.509Z,51.43
2024-05-09T08:50:35.951Z,46.53
2024-05-09T08:53:05.926Z,45.10
2024-05-09T08:55:32.861Z,46.60
2024-05-09T08:58:03.111Z,52.60
2024-05-09T09:00:36.824Z,42.77
2024-05-09T09:03:07.692Z,39.40
2024-05-09T09:05:39.007Z,39.03
2024-05-09T09:08:07.930Z,42.97
2024-05-09T09:10:35.765Z,40.90
2024-05-09T09:13:04.744Z,45.00
2024-05-09T09:15:32.273Z,40.70
2024-05-09T09:18:00.906Z,37.47
2024-05-09T09:20:35.690Z,38.27
2024-05-09T09:23:04.740Z,34.90
2024-05-09T09:25:31.923Z,41.37
2024-05-09T09:27:58.919Z,38.17
2024-05-09T09:30:36.354Z,42.20
2024-05-09T09:33:06.093Z,38.73
2024-05-09T09:35:33.072Z,39.87
2024-05-09T09:38:03.177Z,35.87
2024-05-09T09:40:37.588Z,34.63
2024-05-09T09:43:14.857Z,35.90
2024-05-09T09:45:44.156Z,38.03
2024-05-09T09:48:14.638Z,34.97
2024-05-09T09:50:42.534Z,33.70
2024-05-09T09:53:10.319Z,37.30
2024-05-09T09:55:37.870Z,38.17
2024-05-09T09:58:06.392Z,35.63
2024-05-09T10:00:34.545Z,37.80
2024-05-09T10:03:02.053Z,34.03
2024-05-09T10:05:30.130Z,37.60
2024-05-09T10:07:58.632Z,31.93
2024-05-09T10:10:32.131Z,25.33
2024-05-09T10:13:04.049Z,26.70
2024-05-09T10:15:42.984Z,30.03
2024-05-09T10:18:09.930Z,26.97
2024-05-09T10:20:49.367Z,23.87
2024-05-09T10:23:29.946Z,25.67
2024-05-09T10:26:05.302Z,21.33
2024-05-09T10:28:34.176Z,20.83
2024-05-09T10:31:12.865Z,24.80
2024-05-09T10:33:48.146Z,24.97
2024-05-09T10:36:28.889Z,25.37
2024-05-09T10:38:55.899Z,26.80
2024-05-09T10:41:23.521Z,24.50
2024-05-09T10:43:51.044Z,30.27
2024-05-09T10:46:21.411Z,24.70
2024-05-09T10:48:48.825Z,29.53
2024-05-09T10:51:17.084Z,23.23
2024-05-09T10:53:45.315Z,24.07
2024-05-09T10:56:14.302Z,19.57
2024-05-09T10:58:41.034Z,24.00
2024-05-09T11:01:09.224Z,27.07
2024-05-09T11:03:37.012Z,23.77
2024-05-09T11:06:04.281Z,23.20
2024-05-09T11:08:32.322Z,22.00
2024-05-09T11:10:59.976Z,23.87
2024-05-09T11:13:31.620Z,23.03
2024-05-09T11:16:02.987Z,24.50
2024-05-09T11:18:35.125Z,21.73
2024-05-09T11:21:14.626Z,22.43
2024-05-09T11:23:41.617Z,22.20
2024-05-09T11:26:09.974Z,27.10
2024-05-09T11:28:36.814Z,28.07
2024-05-09T11:31:09.463Z,24.20
2024-05-09T11:33:38.768Z,21.67
2024-05-09T11:36:07.260Z,21.50
2024-05-09T11:38:34.283Z,22.33
2024-05-09T11:41:02.350Z,20.10
2024-05-09T11:43:32.151Z,23.07
2024-05-09T11:45:59.844Z,21.00
2024-05-09T11:48:27.189Z,21.40
2024-05-09T11:50:55.312Z,24.37
2024-05-09T11:53:22.267Z,22.90
2024-05-09T11:55:48.990Z,21.80
2024-05-09T11:58:18.198Z,21.10
2024-05-09T12:00:46.261Z,26.67
2024-05-09T12:03:13.320Z,21.10
2024-05-09T12:05:40.402Z,21.17
2024-05-09T12:08:07.613Z,17.50
2024-05-09T12:10:36.108Z,19.90
2024-05-09T12:13:05.843Z,18.43
2024-05-09T12:15:36.872Z,19.50
2024-05-09T12:18:04.893Z,21.53
2024-05-09T12:20:37.566Z,22.57
2024-05-09T12:23:07.860Z,23.27
2024-05-09T12:25:35.879Z,17.77
2024-05-09T12:28:02.833Z,22.30
2024-05-09T12:30:36.376Z,19.03
2024-05-09T12:33:08.095Z,19.73
2024-05-09T12:35:34.989Z,19.83
2024-05-09T12:38:01.695Z,18.90
2024-05-09T12:40:35.635Z,19.17
2024-05-09T12:43:06.512Z,16.93
2024-05-09T12:45:33.686Z,17.73
2024-05-09T12:48:01.028Z,18.00
2024-05-09T12:50:32.240Z,16.97
2024-05-09T12:53:01.343Z,15.80
2024-05-09T12:55:29.860Z,15.33
2024-05-09T12:57:59.052Z,15.57
2024-05-09T13:00:31.686Z,15.87
2024-05-09T13:03:01.219Z,20.80
2024-05-09T13:05:28.696Z,16.27
2024-05-09T13:07:56.845Z,18.70
2024-05-09T13:10:31.156Z,16.43
2024-05-09T13:13:01.048Z,19.67
2024-05-09T13:15:28.626Z,23.97
2024-05-09T13:17:58.334Z,19.63
2024-05-09T13:20:32.788Z,19.23
2024-05-09T13:23:03.055Z,23.03
2024-05-09T13:25:29.776Z,21.30
2024-05-09T13:27:57.304Z,17.77
2024-05-09T13:30:30.021Z,21.80
2024-05-09T13:33:06.557Z,23.33
2024-05-09T13:35:35.419Z,18.57
2024-05-09T13:38:03.742Z,30.17
2024-05-09T13:40:34.493Z,23.50
2024-05-09T13:43:06.050Z,26.70
2024-05-09T13:45:33.870Z,21.43
2024-05-09T13:48:02.367Z,21.03
2024-05-09T13:50:35.726Z,19.70
2024-05-09T13:53:06.197Z,19.27
2024-05-09T13:55:34.194Z,17.57
2024-05-09T13:58:01.886Z,18.93
2024-05-09T14:00:41.796Z,21.03
2024-05-09T14:03:14.251Z,18.20
2024-05-09T14:05:41.478Z,20.73
2024-05-09T14:08:08.788Z,17.70
2024-05-09T14:10:35.711Z,16.70
2024-05-09T14:13:02.575Z,21.70
2024-05-09T14:15:29.517Z,17.53
2024-05-09T14:17:56.286Z,18.00
2024-05-09T14:20:30.272Z,19.40
2024-05-09T14:22:59.482Z,16.17
2024-05-09T14:25:32.738Z,20.17
2024-05-09T14:28:00.563Z,16.60
2024-05-09T14:30:34.825Z,19.47
2024-05-09T14:33:06.068Z,20.53
2024-05-09T14:35:33.651Z,21.37
2024-05-09T14:38:00.536Z,20.53
2024-05-09T14:40:37.172Z,19.60
2024-05-09T14:43:10.273Z,21.60
2024-05-09T14:45:37.206Z,20.20
2024-05-09T14:48:04.465Z,24.30
2024-05-09T14:50:36.705Z,18.93
2024-05-09T14:53:10.070Z,20.13
2024-05-09T14:55:39.064Z,19.83
2024-05-09T14:58:07.381Z,17.97
2024-05-09T15:00:41.682Z,18.70
2024-05-09T15:03:11.733Z,20.57
2024-05-09T15:05:38.806Z,21.10
2024-05-09T15:08:07.275Z,16.47
2024-05-09T15:10:36.265Z,16.80
2024-05-09T15:13:04.583Z,20.10
2024-05-09T15:15:31.788Z,15.43
2024-05-09T15:17:59.285Z,17.20
2024-05-09T15:20:33.471Z,17.80
2024-05-09T15:23:03.355Z,29.90
2024-05-09T15:25:30.540Z,22.90
2024-05-09T15:27:57.518Z,15.17
2024-05-09T15:30:30.466Z,18.87
2024-05-09T15:32:59.865Z,24.37
2024-05-09T15:35:26.708Z,46.43
2024-05-09T15:37:53.468Z,16.10
2024-05-09T15:40:30.456Z,16.67
2024-05-09T15:43:04.687Z,22.07
2024-05-09T15:45:31.976Z,20.47
2024-05-09T15:47:59.329Z,20.60
2024-05-09T15:50:35.780Z,21.47
2024-05-09T15:53:06.828Z,19.90
2024-05-09T15:55:34.806Z,22.93
2024-05-09T15:58:02.899Z,19.53
2024-05-09T16:00:37.428Z,23.90
2024-05-09T16:03:08.243Z,22.87
2024-05-09T16:05:35.244Z,24.00
2024-05-09T16:08:02.499Z,24.37
2024-05-09T16:10:32.861Z,23.57
2024-05-09T16:13:02.362Z,22.27
2024-05-09T16:15:29.900Z,21.90
2024-05-09T16:17:57.085Z,28.83
2024-05-09T16:22:54.507Z,25.33
2024-05-09T16:25:21.329Z,22.07
2024-05-09T16:27:48.447Z,24.30
2024-05-09T16:30:24.127Z,21.90
2024-05-09T16:32:55.170Z,23.87
2024-05-09T16:35:21.981Z,20.77
2024-05-09T16:37:49.160Z,21.10
2024-05-09T16:40:25.123Z,23.53
2024-05-09T16:43:08.326Z,23.37
2024-05-09T16:45:35.555Z,18.90
2024-05-09T16:48:02.949Z,20.73
2024-05-09T16:50:33.828Z,24.97
2024-05-09T16:53:02.863Z,19.90
2024-05-09T16:55:29.746Z,20.27
2024-05-09T16:57:57.554Z,18.83
2024-05-09T17:00:35.458Z,22.00
2024-05-09T17:03:09.446Z,19.70
2024-05-09T17:05:37.002Z,19.53
2024-05-09T17:08:04.235Z,17.97
2024-05-09T17:10:33.798Z,17.50
2024-05-09T17:13:03.424Z,17.30
2024-05-09T17:15:31.698Z,21.83
2024-05-09T17:17:58.540Z,17.17
2024-05-09T17:20:32.180Z,17.27
2024-05-09T17:23:02.547Z,16.50
2024-05-09T17:25:29.476Z,19.87
2024-05-09T17:27:56.894Z,18.37
2024-05-09T17:30:32.057Z,30.30
2024-05-09T17:33:05.118Z,18.60
2024-05-09T17:35:32.321Z,19.73
2024-05-09T17:37:59.859Z,19.37
2024-05-09T17:40:33.066Z,24.13
2024-05-09T17:43:03.399Z,18.73
2024-05-09T17:45:30.720Z,15.33
2024-05-09T17:47:58.360Z,34.23
2024-05-09T17:50:31.599Z,18.43
2024-05-09T17:53:02.692Z,25.43
2024-05-09T17:55:29.663Z,17.30
2024-05-09T17:57:56.816Z,18.27
2024-05-09T18:00:33.479Z,16.63
2024-05-09T18:03:06.409Z,17.27
2024-05-09T18:05:35.027Z,19.27
2024-05-09T18:08:02.047Z,25.93
2024-05-09T18:10:35.436Z,16.90
2024-05-09T18:13:06.131Z,16.30
2024-05-09T18:15:33.505Z,13.33
2024-05-09T18:18:01.621Z,18.33
2024-05-09T18:20:37.620Z,18.30
2024-05-09T18:23:09.980Z,17.57
2024-05-09T18:25:36.790Z,30.70
2024-05-09T18:28:03.868Z,20.07
2024-05-09T18:30:35.008Z,28.10
2024-05-09T18:33:05.430Z,15.90
2024-05-09T18:35:33.509Z,15.60
2024-05-09T18:38:00.683Z,16.73
2024-05-09T18:40:33.016Z,13.10
2024-05-09T18:43:04.654Z,15.10
2024-05-09T18:45:32.546Z,16.20
2024-05-09T18:47:59.828Z,17.77
2024-05-09T18:50:35.264Z,16.40
2024-05-09T18:53:11.166Z,16.30
2024-05-09T18:55:38.771Z,15.00
2024-05-09T18:58:05.655Z,15.37
2024-05-09T19:00:36.348Z,15.87
2024-05-09T19:03:11.720Z,13.97
2024-05-09T19:05:41.248Z,14.90
2024-05-09T19:08:08.806Z,15.30
2024-05-09T19:10:38.462Z,18.10
2024-05-09T19:13:09.329Z,14.70
2024-05-09T19:15:40.061Z,42.60
2024-05-09T19:18:07.755Z,65.97
2024-05-09T19:20:36.507Z,24.20
2024-05-09T19:23:05.888Z,17.20
2024-05-09T19:25:33.917Z,15.30
2024-05-09T19:28:01.230Z,14.73
2024-05-09T19:30:37.313Z,13.73
2024-05-09T19:33:09.470Z,16.03
2024-05-09T19:35:37.186Z,16.07
2024-05-09T19:38:04.373Z,18.30
2024-05-09T19:40:33.911Z,14.67
2024-05-09T19:43:02.868Z,14.90
2024-05-09T19:45:31.227Z,16.37
2024-05-09T19:47:58.611Z,12.03
2024-05-09T19:50:32.891Z,15.17
2024-05-09T19:53:08.584Z,16.97
2024-05-09T19:55:35.516Z,13.37
2024-05-09T19:58:05.392Z,16.67
2024-05-09T20:00:43.583Z,14.67
2024-05-09T20:03:12.970Z,13.20
2024-05-09T20:05:42.035Z,16.13
2024-05-09T20:08:09.142Z,13.47
2024-05-09T20:10:37.080Z,17.47
2024-05-09T20:13:06.606Z,15.00
2024-05-09T20:15:35.598Z,13.93
2024-05-09T20:18:02.781Z,13.40
2024-05-09T20:20:37.299Z,16.27
2024-05-09T20:23:08.226Z,15.37
2024-05-09T20:25:38.332Z,23.20
2024-05-09T20:28:06.175Z,16.03
2024-05-09T20:30:35.028Z,15.53
2024-05-09T20:33:04.825Z,16.33
2024-05-09T20:35:33.767Z,17.70
2024-05-09T20:38:02.556Z,14.80
2024-05-09T20:40:34.717Z,15.93
2024-05-09T20:43:05.829Z,18.73
2024-05-09T20:45:33.434Z,18.00
2024-05-09T20:48:01.446Z,14.77
2024-05-09T20:50:36.883Z,16.43
2024-05-09T20:53:12.590Z,20.40
2024-05-09T20:55:41.318Z,17.33
2024-05-09T20:58:08.878Z,15.53
2024-05-09T21:00:40.310Z,18.13
2024-05-09T21:03:11.715Z,15.80
2024-05-09T21:05:42.235Z,15.97
2024-05-09T21:08:09.198Z,15.60
2024-05-09T21:10:37.020Z,15.07
2024-05-09T21:13:05.104Z,16.40
2024-05-09T21:15:33.547Z,15.20
2024-05-09T21:18:00.423Z,15.33
2024-05-09T21:20:31.625Z,17.30
2024-05-09T21:23:00.396Z,18.30
2024-05-09T21:25:27.408Z,18.30
2024-05-09T21:27:55.040Z,22.50
2024-05-09T21:30:32.417Z,17.93
2024-05-09T21:33:14.807Z,15.27
2024-05-09T21:35:44.507Z,19.23
2024-05-09T21:38:13.908Z,17.13
2024-05-09T21:40:41.962Z,21.57
2024-05-09T21:43:09.153Z,20.67
2024-05-09T21:45:37.168Z,17.60
2024-05-09T21:48:05.186Z,18.47
2024-05-09T21:50:39.204Z,18.27
2024-05-09T21:53:08.485Z,18.67
2024-05-09T21:55:35.465Z,19.50
2024-05-09T21:58:03.142Z,16.43
2024-05-09T22:00:36.132Z,18.63
2024-05-09T22:03:09.315Z,20.00
2024-05-09T22:05:38.299Z,18.40
2024-05-09T22:08:05.910Z,26.33
2024-05-09T22:10:35.151Z,20.70
2024-05-09T22:13:05.339Z,20.20
2024-05-09T22:15:35.889Z,26.10
2024-05-09T22:18:03.865Z,19.43
2024-05-09T22:20:36.842Z,17.17
2024-05-09T22:23:05.986Z,18.47
2024-05-09T22:25:33.142Z,20.27
2024-05-09T22:28:01.382Z,21.17
2024-05-09T22:30:35.759Z,22.10
2024-05-09T22:33:07.796Z,22.20
2024-05-09T22:35:34.722Z,21.87
2024-05-09T22:38:05.451Z,21.80
2024-05-09T22:40:41.977Z,23.23
2024-05-09T22:43:17.155Z,23.00
2024-05-09T22:45:44.257Z,22.70
2024-05-09T22:48:11.177Z,21.87
2024-05-09T22:50:38.026Z,23.43
2024-05-09T22:53:05.602Z,23.90
2024-05-09T22:55:32.323Z,21.60
2024-05-09T22:57:58.985Z,22.40
2024-05-09T23:00:31.576Z,23.03
2024-05-09T23:03:02.945Z,20.33
2024-05-09T23:05:30.984Z,21.63
2024-05-09T23:07:57.860Z,16.83
2024-05-09T23:10:31.705Z,20.10
2024-05-09T23:13:03.028Z,20.43
2024-05-09T23:15:30.149Z,19.17
2024-05-09T23:17:57.964Z,20.90
2024-05-09T23:20:33.726Z,20.80
2024-05-09T23:23:05.762Z,23.27
2024-05-09T23:25:32.649Z,19.93
2024-05-09T23:27:59.470Z,23.27
2024-05-09T23:30:36.091Z,20.30
2024-05-09T23:33:06.658Z,24.10
2024-05-09T23:35:33.504Z,21.93
2024-05-09T23:38:00.306Z,19.87
2024-05-09T23:40:37.123Z,19.93
2024-05-09T23:43:07.484Z,19.63
2024-05-09T23:45:34.813Z,19.17
2024-05-09T23:48:01.908Z,20.77
2024-05-09T23:50:35.892Z,22.43
2024-05-09T23:53:06.937Z,19.40
2024-05-09T23:55:34.998Z,21.00
2024-05-09T23:58:01.725Z,20.83
